Time;durP1;ratioP1;P1;durP2;ratioP2;P2;SDS_P1;SDS_P2;PMS_P1;PMS_P2;Temp;Humidity;BMP_temperature;BMP_pressure;BME280_temperature;BME280_humidity;BME280_pressure;Samples;Min_cycle;Max_cycle;Signal;HPM_P1;HPM_P2
2023/05/19 00:01:27;;;;;;;19.60;13.10;;;;;;;14.13;74.54;101540.58;107622;1254;99176;-65
2023/05/19 00:03:57;;;;;;;26.50;13.50;;;;;;;14.11;74.43;101538.27;107580;1251;111807;-65
2023/05/19 00:06:30;;;;;;;18.90;12.60;;;;;;;14.07;74.91;101528.70;107572;1250;109914;-70
2023/05/19 00:09:02;;;;;;;18.30;12.30;;;;;;;14.02;75.04;101529.38;107619;1253;108557;-65
2023/05/19 00:11:30;;;;;;;24.70;13.10;;;;;;;13.96;75.43;101518.20;107561;1254;99280;-66
2023/05/19 00:13:59;;;;;;;17.70;12.20;;;;;;;13.92;75.57;101517.73;107591;1251;99800;-65
2023/05/19 00:16:29;;;;;;;19.60;11.80;;;;;;;13.88;75.66;101513.13;107580;1251;112435;-65
2023/05/19 00:19:00;;;;;;;18.90;12.10;;;;;;;13.86;75.73;101517.98;107449;1254;109853;-66
2023/05/19 00:21:30;;;;;;;19.40;11.60;;;;;;;13.84;75.88;101526.30;107602;1255;108308;-66
2023/05/19 00:23:58;;;;;;;17.10;11.70;;;;;;;13.84;75.80;101532.45;107597;1251;99628;-64
2023/05/19 00:26:27;;;;;;;17.90;12.20;;;;;;;13.83;75.76;101539.30;107581;1253;99044;-67
2023/05/19 00:28:59;;;;;;;22.80;11.50;;;;;;;13.86;75.49;101536.40;107597;1251;113156;-64
2023/05/19 00:31:28;;;;;;;19.60;12.30;;;;;;;13.85;76.12;101542.23;107599;1251;108355;-66
2023/05/19 00:33:57;;;;;;;18.70;11.40;;;;;;;13.82;76.02;101546.98;107595;1250;108113;-65
2023/05/19 00:36:25;;;;;;;17.50;11.10;;;;;;;13.83;75.62;101561.33;107557;1251;99269;-68
2023/05/19 00:38:56;;;;;;;14.70;11.20;;;;;;;13.84;75.49;101559.98;107599;1251;99704;-66
2023/05/19 00:41:25;;;;;;;17.70;11.20;;;;;;;13.87;75.40;101557.25;107612;1254;111920;-67
2023/05/19 00:43:54;;;;;;;21.90;11.00;;;;;;;13.89;75.37;101560.39;107568;1254;109090;-65
2023/05/19 00:46:22;;;;;;;18.60;11.60;;;;;;;13.91;75.39;101562.59;107577;1252;108588;-65
2023/05/19 00:48:51;;;;;;;26.90;11.20;;;;;;;13.90;75.30;101561.24;107632;1251;99159;-66
2023/05/19 00:51:20;;;;;;;19.50;12.30;;;;;;;13.89;75.44;101558.63;107629;1251;99794;-64
2023/05/19 00:53:50;;;;;;;23.70;12.10;;;;;;;13.86;75.61;101552.02;107563;1253;113195;-70
2023/05/19 00:56:20;;;;;;;17.80;11.60;;;;;;;13.84;75.57;101551.87;107603;1254;110113;-65
2023/05/19 00:58:50;;;;;;;20.90;12.20;;;;;;;13.84;75.44;101548.45;107611;1253;108006;-64
2023/05/19 01:01:20;;;;;;;23.30;12.30;;;;;;;13.82;76.08;101547.54;107491;1254;99090;-64
2023/05/19 01:03:50;;;;;;;27.20;13.50;;;;;;;13.80;75.95;101543.80;107564;1253;99054;-67
2023/05/19 01:06:19;;;;;;;17.20;12.00;;;;;;;13.80;75.98;101546.67;107637;1252;112314;-65
2023/05/19 01:08:50;;;;;;;22.40;13.20;;;;;;;13.79;75.91;101552.31;107592;1254;108786;-66
2023/05/19 01:11:18;;;;;;;23.80;13.30;;;;;;;13.78;75.91;101553.44;107463;1257;107755;-66
2023/05/19 01:13:47;;;;;;;30.30;13.10;;;;;;;13.81;75.83;101554.34;107574;1254;99173;-65
2023/05/19 01:16:42;;;;;;;22.50;13.40;;;;;;;13.80;75.96;101554.73;107621;1254;99052;-63
2023/05/19 01:19:29;;;;;;;18.60;13.00;;;;;;;13.81;75.89;101554.30;107600;1253;112104;-66
2023/05/19 01:22:26;;;;;;;23.20;12.50;;;;;;;13.82;75.77;101556.17;107600;1253;109104;-65
2023/05/19 01:25:06;;;;;;;21.10;13.10;;;;;;;13.81;75.93;101563.89;107579;1254;107328;-69
2023/05/19 01:28:21;;;;;;;18.70;12.30;;;;;;;13.80;76.39;101561.79;107384;1253;99161;-70
2023/05/19 01:30:54;;;;;;;20.80;12.90;;;;;;;13.77;76.75;101562.23;107426;1253;99189;-65
2023/05/19 01:33:24;;;;;;;19.20;13.30;;;;;;;13.74;77.02;101557.42;107612;1254;113589;-67
2023/05/19 01:35:55;;;;;;;24.80;13.20;;;;;;;13.72;76.92;101563.90;107637;1252;108926;-66
2023/05/19 01:38:25;;;;;;;21.10;12.30;;;;;;;13.73;76.86;101572.13;107497;1254;108760;-64
2023/05/19 01:40:55;;;;;;;23.90;13.10;;;;;;;13.75;77.27;101572.70;107603;1254;99160;-65
2023/05/19 01:43:26;;;;;;;28.80;13.80;;;;;;;13.73;77.28;101572.52;107565;1254;99771;-63
2023/05/19 01:45:57;;;;;;;22.10;13.40;;;;;;;13.67;77.62;101576.09;107610;1253;112374;-65
2023/05/19 01:48:28;;;;;;;18.50;12.80;;;;;;;13.64;77.89;101574.20;107515;1253;110035;-66
2023/05/19 01:50:58;;;;;;;20.50;13.40;;;;;;;13.62;78.07;101568.63;107643;1253;107744;-65
2023/05/19 01:53:26;;;;;;;25.30;13.80;;;;;;;13.61;77.83;101567.41;107569;1254;99269;-65
2023/05/19 01:55:56;;;;;;;21.20;12.80;;;;;;;13.62;78.04;101566.63;107567;1254;99055;-67
2023/05/19 01:58:46;;;;;;;26.20;14.20;;;;;;;13.60;78.06;101573.84;107558;1254;112601;-67
2023/05/19 02:01:29;;;;;;;22.20;13.50;;;;;;;13.57;78.11;101576.45;107547;1252;109822;-66
2023/05/19 02:04:17;;;;;;;25.30;11.90;;;;;;;13.56;78.02;101581.23;107559;1254;106566;-65
2023/05/19 02:06:58;;;;;;;18.90;12.50;;;;;;;13.57;77.67;101584.14;107634;1256;99179;-66
2023/05/19 02:09:37;;;;;;;22.60;14.00;;;;;;;13.59;77.81;101583.95;107601;1255;99058;-67
2023/05/19 02:12:27;;;;;;;27.60;14.10;;;;;;;13.60;77.85;101583.94;107587;1252;113942;-65
2023/05/19 02:15:10;;;;;;;25.10;14.00;;;;;;;13.59;78.00;101580.39;107638;1254;109837;-67
2023/05/19 02:17:41;;;;;;;25.10;13.10;;;;;;;13.59;78.02;101577.86;107565;1254;106029;-67
2023/05/19 02:20:10;;;;;;;26.10;14.10;;;;;;;13.58;77.87;101580.48;107622;1254;99183;-64
2023/05/19 02:22:39;;;;;;;17.50;13.30;;;;;;;13.57;77.57;101582.38;107603;1254;99672;-65
2023/05/19 02:25:08;;;;;;;20.70;14.40;;;;;;;13.60;77.65;101581.02;107595;1251;113637;-63
2023/05/19 02:27:38;;;;;;;22.50;12.60;;;;;;;13.60;77.78;101586.94;107586;1254;108557;-65
2023/05/19 02:30:08;;;;;;;30.80;14.60;;;;;;;13.56;78.07;101591.10;107650;1250;105820;-66
2023/05/19 02:32:37;;;;;;;26.10;14.40;;;;;;;13.52;78.41;101590.62;107546;1256;99266;-64
2023/05/19 02:35:06;;;;;;;24.70;15.30;;;;;;;13.46;78.50;101597.23;107596;1253;99219;-67
2023/05/19 02:37:34;;;;;;;28.90;15.10;;;;;;;13.46;78.09;101597.55;107658;1254;113591;-64
2023/05/19 02:40:03;;;;;;;26.40;15.00;;;;;;;13.46;78.50;101603.50;107625;1251;109465;-68
2023/05/19 02:42:32;;;;;;;32.40;15.90;;;;;;;13.43;78.50;101608.29;107588;1256;108643;-68
2023/05/19 02:45:00;;;;;;;26.80;15.70;;;;;;;13.42;78.58;101606.05;107646;1254;99179;-67
2023/05/19 02:47:29;;;;;;;29.30;15.50;;;;;;;13.40;78.14;101610.17;107549;1254;99701;-65
2023/05/19 02:49:57;;;;;;;33.00;17.10;;;;;;;13.45;78.29;101613.69;107615;1251;113350;-65
2023/05/19 02:52:25;;;;;;;32.20;16.20;;;;;;;13.46;78.50;101619.40;107624;1251;109909;-67
2023/05/19 02:54:54;;;;;;;27.60;16.60;;;;;;;13.42;78.82;101626.21;107565;1251;106926;-66
2023/05/19 02:57:23;;;;;;;24.40;15.60;;;;;;;13.38;78.88;101626.90;107490;1251;99160;-66
2023/05/19 02:59:51;;;;;;;28.40;16.80;;;;;;;13.37;78.90;101627.84;107671;1251;99247;-65
2023/05/19 03:02:20;;;;;;;32.10;16.00;;;;;;;13.38;78.65;101636.80;107660;1256;113506;-66
2023/05/19 03:04:48;;;;;;;35.30;17.10;;;;;;;13.40;78.80;101637.00;107616;1251;109418;-66
2023/05/19 03:07:17;;;;;;;31.80;16.10;;;;;;;13.41;78.72;101634.59;107542;1250;108130;-67
2023/05/19 03:09:45;;;;;;;38.20;18.70;;;;;;;13.45;78.54;101637.98;107579;1251;99160;-66
2023/05/19 03:12:14;;;;;;;39.60;21.00;;;;;;;13.47;78.53;101640.93;107631;1251;99178;-66
2023/05/19 03:14:43;;;;;;;35.30;17.50;;;;;;;13.44;78.60;101643.66;107590;1251;111460;-65
2023/05/19 03:17:11;;;;;;;36.20;18.50;;;;;;;13.42;78.65;101643.30;107636;1251;108702;-65
2023/05/19 03:19:40;;;;;;;32.10;16.80;;;;;;;13.42;78.71;101647.45;107573;1251;108374;-65
2023/05/19 03:22:08;;;;;;;32.00;17.10;;;;;;;13.41;78.69;101644.71;107599;1251;99196;-65
2023/05/19 03:24:38;;;;;;;32.40;17.30;;;;;;;13.39;78.76;101643.21;107594;1253;98952;-65
2023/05/19 03:27:07;;;;;;;33.00;17.90;;;;;;;13.40;78.50;101643.29;107644;1253;113324;-66
2023/05/19 03:29:37;;;;;;;31.70;17.50;;;;;;;13.42;78.86;101653.08;107589;1252;110083;-65
2023/05/19 03:32:06;;;;;;;34.40;17.00;;;;;;;13.41;78.73;101646.83;107510;1254;108788;-65
2023/05/19 03:34:34;;;;;;;35.90;17.50;;;;;;;13.42;78.59;101653.23;107628;1251;99174;-65
2023/05/19 03:37:03;;;;;;;33.20;17.40;;;;;;;13.43;78.72;101651.67;107655;1251;99060;-65
2023/05/19 03:39:31;;;;;;;43.60;19.10;;;;;;;13.44;78.54;101652.11;107637;1251;113574;-65
2023/05/19 03:42:00;;;;;;;30.70;17.60;;;;;;;13.44;78.52;101649.77;107625;1251;108954;-65
2023/05/19 03:44:28;;;;;;;31.90;17.30;;;;;;;13.44;78.43;101655.17;107440;1254;108332;-66
2023/05/19 03:46:59;;;;;;;50.90;33.10;;;;;;;13.50;78.27;101653.67;107593;1254;99167;-66
2023/05/19 03:50:08;;;;;;;36.60;18.60;;;;;;;13.60;78.13;101660.19;107097;1260;99346;-68
2023/05/19 03:53:03;;;;;;;39.60;19.00;;;;;;;13.60;77.82;101661.39;107138;1261;113342;-68
2023/05/19 03:55:38;;;;;;;39.30;20.10;;;;;;;13.62;77.74;101664.30;107284;1253;108340;-68
2023/05/19 03:58:06;;;;;;;35.40;19.10;;;;;;;13.63;77.70;101669.98;107542;1254;107514;-65
2023/05/19 04:00:36;;;;;;;36.00;20.70;;;;;;;13.64;77.56;101679.27;107624;1251;99287;-64
2023/05/19 04:03:04;;;;;;;41.20;18.50;;;;;;;13.70;77.29;101690.32;107598;1251;99694;-66
2023/05/19 04:05:34;;;;;;;39.50;18.60;;;;;;;13.78;77.35;101695.58;107612;1254;111403;-68
2023/05/19 04:08:05;;;;;;;32.90;17.50;;;;;;;13.78;76.93;101677.54;107620;1255;109163;-71
2023/05/19 04:10:34;;;;;;;36.50;19.90;;;;;;;13.77;77.23;101679.21;107618;1251;108014;-69
2023/05/19 04:13:06;;;;;;;41.60;18.70;;;;;;;13.74;77.19;101682.55;107624;1251;99045;-66
2023/05/19 04:15:35;;;;;;;37.50;19.30;;;;;;;13.71;77.51;101684.83;107615;1255;99691;-69
2023/05/19 04:18:03;;;;;;;50.80;24.60;;;;;;;13.72;77.41;101685.61;107645;1251;111949;-65
2023/05/19 04:20:33;;;;;;;50.20;23.80;;;;;;;13.78;77.24;101687.58;107592;1251;109988;-64
2023/05/19 04:23:03;;;;;;;35.80;18.60;;;;;;;13.86;77.15;101687.16;107655;1251;108584;-66
2023/05/19 04:25:32;;;;;;;33.60;19.20;;;;;;;13.92;76.82;101681.92;107621;1251;99188;-69
2023/05/19 04:28:01;;;;;;;35.70;18.20;;;;;;;13.94;76.55;101679.89;107636;1251;99253;-65
2023/05/19 04:30:31;;;;;;;37.40;18.50;;;;;;;14.00;76.56;101675.40;107605;1251;113182;-68
2023/05/19 04:32:59;;;;;;;38.60;19.20;;;;;;;14.04;76.25;101675.24;107607;1251;109071;-66
2023/05/19 04:35:29;;;;;;;50.20;19.10;;;;;;;14.09;76.08;101674.98;107537;1254;108687;-67
2023/05/19 04:37:58;;;;;;;42.70;18.80;;;;;;;14.16;75.85;101685.52;107599;1252;99275;-66
2023/05/19 04:40:29;;;;;;;42.10;18.70;;;;;;;14.21;75.72;101688.70;107453;1254;99247;-67
2023/05/19 04:43:00;;;;;;;40.80;18.20;;;;;;;14.24;75.52;101694.05;107590;1254;111850;-65
2023/05/19 04:45:31;;;;;;;41.30;18.40;;;;;;;14.17;75.61;101681.66;107628;1251;109218;-67
2023/05/19 04:48:01;;;;;;;30.70;17.70;;;;;;;14.12;75.66;101683.39;107587;1251;107648;-64
2023/05/19 04:50:31;;;;;;;33.50;17.30;;;;;;;14.15;75.54;101691.80;107593;1251;99192;-65
2023/05/19 04:53:00;;;;;;;41.20;18.00;;;;;;;14.16;75.45;101698.95;107639;1250;99707;-67
2023/05/19 04:55:28;;;;;;;34.40;17.00;;;;;;;14.16;75.48;101703.63;107621;1251;113390;-68
2023/05/19 04:57:57;;;;;;;36.70;17.70;;;;;;;14.22;75.51;101704.30;107615;1251;108076;-65
2023/05/19 05:00:26;;;;;;;29.40;17.50;;;;;;;14.25;75.30;101700.63;107430;1254;108267;-65
2023/05/19 05:02:59;;;;;;;35.00;17.90;;;;;;;14.28;75.04;101685.90;107593;1255;99620;-67
2023/05/19 05:05:29;;;;;;;39.00;20.20;;;;;;;14.42;75.03;101682.30;107631;1251;100503;-67
2023/05/19 05:07:58;;;;;;;37.30;19.10;;;;;;;14.47;74.63;101675.70;107606;1251;113180;-66
2023/05/19 05:10:28;;;;;;;35.00;18.40;;;;;;;14.51;74.43;101671.59;107611;1254;110179;-67
2023/05/19 05:12:57;;;;;;;37.50;16.30;;;;;;;14.54;74.19;101673.83;107603;1251;108726;-67
2023/05/19 05:15:27;;;;;;;27.20;15.40;;;;;;;14.59;73.96;101687.31;107621;1251;99036;-66
2023/05/19 05:17:56;;;;;;;32.30;16.70;;;;;;;14.61;73.81;101706.25;107611;1251;99198;-66
2023/05/19 05:20:26;;;;;;;37.00;17.30;;;;;;;14.62;73.72;101704.33;107595;1251;113213;-65
2023/05/19 05:22:56;;;;;;;33.40;17.50;;;;;;;14.58;73.74;101684.49;107543;1251;109387;-64
2023/05/19 05:25:26;;;;;;;36.80;15.60;;;;;;;14.57;73.80;101682.81;107641;1251;107768;-66
2023/05/19 05:27:54;;;;;;;46.90;17.70;;;;;;;14.58;73.71;101687.71;107532;1256;99166;-65
2023/05/19 05:30:23;;;;;;;38.80;15.40;;;;;;;14.62;73.45;101687.38;107627;1251;99112;-65
2023/05/19 05:33:02;;;;;;;34.80;16.20;;;;;;;14.67;73.39;101691.96;107565;1250;111973;-68
2023/05/19 05:35:37;;;;;;;34.60;16.60;;;;;;;14.88;73.19;101707.22;107571;1254;110202;-70
2023/05/19 05:38:10;;;;;;;34.00;16.40;;;;;;;15.14;72.66;101709.56;107447;1254;107029;-65
2023/05/19 05:40:39;;;;;;;32.70;15.70;;;;;;;15.18;71.65;101703.38;107518;1254;99272;-66
2023/05/19 05:43:08;;;;;;;30.70;15.60;;;;;;;15.26;71.57;101702.83;107609;1254;99234;-65
2023/05/19 05:45:41;;;;;;;45.40;15.50;;;;;;;15.28;71.03;101701.57;107559;1252;113454;-67
2023/05/19 05:48:13;;;;;;;30.40;14.80;;;;;;;15.38;71.11;101703.35;107553;1259;109248;-66
2023/05/19 05:50:44;;;;;;;26.00;16.20;;;;;;;15.44;70.35;101713.96;107571;1254;108667;-66
2023/05/19 05:53:19;;;;;;;28.70;15.20;;;;;;;15.35;70.27;101716.35;107572;1254;99248;-68
2023/05/19 05:55:50;;;;;;;26.70;16.10;;;;;;;15.31;70.57;101715.20;107641;1251;99797;-66
2023/05/19 05:58:20;;;;;;;30.70;15.70;;;;;;;15.36;70.35;101719.61;107427;1254;112219;-66
2023/05/19 06:00:52;;;;;;;30.60;15.70;;;;;;;15.33;70.16;101720.39;107548;1254;109933;-66
2023/05/19 06:03:23;;;;;;;31.90;15.20;;;;;;;15.32;70.35;101716.85;107524;1254;108601;-67
2023/05/19 06:06:00;;;;;;;30.80;16.30;;;;;;;15.46;70.38;101721.20;107499;1253;99079;-67
2023/05/19 06:08:32;;;;;;;31.50;15.30;;;;;;;15.50;69.86;101720.45;107388;1254;99179;-67
2023/05/19 06:11:09;;;;;;;31.30;16.70;;;;;;;15.49;69.71;101719.67;107445;1254;113516;-67
2023/05/19 06:13:50;;;;;;;28.00;14.80;;;;;;;15.50;69.80;101717.60;107499;1254;109297;-65
2023/05/19 06:16:34;;;;;;;36.00;14.80;;;;;;;15.59;69.94;101717.95;107424;1259;108222;-65
2023/05/19 06:19:06;;;;;;;26.90;13.60;;;;;;;15.81;69.73;101721.56;107441;1254;99243;-68
2023/05/19 06:21:35;;;;;;;32.70;16.20;;;;;;;16.00;69.05;101718.89;107412;1254;99178;-65
2023/05/19 06:24:05;;;;;;;31.80;14.40;;;;;;;16.17;68.51;101721.42;107603;1254;111895;-66
2023/05/19 06:26:34;;;;;;;28.70;14.90;;;;;;;16.32;67.98;101717.73;107327;1254;109075;-69
2023/05/19 06:29:08;;;;;;;27.70;13.50;;;;;;;16.40;67.18;101726.54;107499;1254;108435;-66
2023/05/19 06:31:37;;;;;;;33.50;16.80;;;;;;;16.32;66.65;101726.80;107576;1254;99178;-68
2023/05/19 06:34:15;;;;;;;27.10;15.80;;;;;;;16.27;66.46;101730.55;107540;1258;99735;-71
2023/05/19 06:36:43;;;;;;;21.80;14.10;;;;;;;16.18;66.70;101732.50;107589;1254;113112;-64
2023/05/19 06:39:12;;;;;;;30.90;13.90;;;;;;;16.17;66.74;101727.88;107535;1254;109979;-65
2023/05/19 06:41:41;;;;;;;28.60;14.20;;;;;;;16.25;66.60;101721.85;107626;1253;108798;-65
2023/05/19 06:44:09;;;;;;;26.30;14.90;;;;;;;16.36;66.55;101722.98;107541;1254;99214;-65
2023/05/19 06:46:37;;;;;;;27.30;14.70;;;;;;;16.34;65.92;101731.85;107648;1254;99722;-68
2023/05/19 06:49:06;;;;;;;28.80;13.10;;;;;;;16.22;66.19;101727.17;107568;1258;111387;-64
2023/05/19 06:51:37;;;;;;;28.80;13.10;;;;;;;16.24;66.57;101723.78;107607;1254;109879;-65
2023/05/19 06:54:06;;;;;;;27.80;13.00;;;;;;;16.28;66.50;101722.79;107531;1254;107007;-65
2023/05/19 06:56:35;;;;;;;33.40;13.60;;;;;;;16.32;66.37;101718.60;107599;1254;99048;-65
2023/05/19 06:59:03;;;;;;;32.30;12.60;;;;;;;16.35;65.93;101719.38;107666;1251;99230;-67
2023/05/19 07:01:34;;;;;;;23.50;12.80;;;;;;;16.36;66.17;101714.63;107583;1252;113327;-67
2023/05/19 07:04:04;;;;;;;25.50;12.50;;;;;;;16.46;65.86;101723.27;107619;1254;109128;-68
2023/05/19 07:06:33;;;;;;;27.90;10.80;;;;;;;16.53;65.88;101723.83;107581;1256;108729;-66
2023/05/19 07:09:03;;;;;;;21.10;11.40;;;;;;;16.74;65.88;101723.34;107596;1251;99032;-67
2023/05/19 07:11:33;;;;;;;21.90;10.60;;;;;;;16.96;65.17;101721.21;107626;1251;99054;-65
2023/05/19 07:14:02;;;;;;;21.50;10.10;;;;;;;17.15;64.46;101720.40;107693;1251;113490;-67
2023/05/19 07:16:31;;;;;;;23.30;10.50;;;;;;;17.23;63.61;101725.23;107497;1254;109537;-67
2023/05/19 07:18:59;;;;;;;35.70;11.00;;;;;;;17.26;63.73;101730.77;107571;1251;108676;-68
2023/05/19 07:21:28;;;;;;;26.50;10.90;;;;;;;17.34;63.42;101730.25;107533;1259;99207;-67
2023/05/19 07:23:58;;;;;;;21.00;11.20;;;;;;;17.32;62.98;101731.33;107641;1251;99794;-66
2023/05/19 07:26:28;;;;;;;27.90;11.60;;;;;;;17.39;62.67;101733.82;107672;1251;113140;-68
2023/05/19 07:28:56;;;;;;;21.20;10.20;;;;;;;17.47;62.98;101725.31;107637;1250;109912;-66
2023/05/19 07:31:25;;;;;;;17.60;9.50;;;;;;;17.61;62.34;101720.96;107622;1251;108106;-68
2023/05/19 07:33:53;;;;;;;16.40;10.50;;;;;;;17.68;61.89;101720.85;107613;1256;99189;-68
2023/05/19 07:36:22;;;;;;;26.20;11.30;;;;;;;17.89;62.25;101718.05;107571;1250;99119;-66
2023/05/19 07:38:50;;;;;;;20.00;9.90;;;;;;;18.06;61.92;101715.59;107608;1251;113072;-65
2023/05/19 07:41:20;;;;;;;22.10;12.40;;;;;;;18.16;61.52;101710.62;107577;1254;110499;-66
2023/05/19 07:43:48;;;;;;;28.70;16.80;;;;;;;18.37;61.43;101706.69;107618;1254;108447;-66
2023/05/19 07:46:17;;;;;;;27.60;10.90;;;;;;;18.39;59.80;101711.52;107639;1251;99062;-66
2023/05/19 07:48:46;;;;;;;15.30;9.30;;;;;;;18.41;60.23;101710.48;107591;1251;99169;-67
2023/05/19 07:51:14;;;;;;;19.90;9.10;;;;;;;18.44;59.61;101709.89;107648;1254;113481;-68
2023/05/19 07:53:43;;;;;;;12.00;7.60;;;;;;;18.59;59.30;101710.33;107629;1255;109500;-66
2023/05/19 07:56:11;;;;;;;17.50;7.30;;;;;;;18.69;58.38;101708.50;107614;1251;108176;-66
2023/05/19 07:58:40;;;;;;;11.90;8.20;;;;;;;18.72;58.73;101703.85;107615;1251;99020;-67
2023/05/19 08:01:09;;;;;;;19.80;7.90;;;;;;;18.72;59.10;101703.63;106686;1254;1236770;-65
2023/05/19 08:03:37;;;;;;;11.40;8.00;;;;;;;18.71;58.80;101700.38;107573;1254;112310;-66
2023/05/19 08:06:06;;;;;;;11.10;7.20;;;;;;;18.75;59.13;101696.80;107677;1256;109799;-66
2023/05/19 08:08:34;;;;;;;33.30;16.90;;;;;;;18.78;58.51;101700.48;107573;1255;107758;-67
2023/05/19 08:11:03;;;;;;;18.60;8.80;;;;;;;18.67;58.16;101699.52;107612;1255;99224;-65
2023/05/19 08:13:33;;;;;;;21.30;8.60;;;;;;;18.63;58.68;101704.48;107638;1251;99884;-68
2023/05/19 08:16:02;;;;;;;12.50;8.20;;;;;;;18.68;58.64;101704.42;107603;1255;112261;-68
2023/05/19 08:18:31;;;;;;;12.60;7.90;;;;;;;18.67;58.09;101708.75;107595;1254;110212;-65
2023/05/19 08:21:02;;;;;;;26.30;7.00;;;;;;;18.68;58.52;101707.42;107637;1256;108740;-66
2023/05/19 08:23:31;;;;;;;17.00;7.40;;;;;;;18.80;58.17;101699.57;107643;1251;99194;-67
2023/05/19 08:26:01;;;;;;;17.40;8.20;;;;;;;18.79;57.76;101699.84;107585;1257;99713;-67
2023/05/19 08:28:29;;;;;;;11.00;7.10;;;;;;;18.96;58.37;101696.04;107630;1250;112620;-64
2023/05/19 08:30:58;;;;;;;14.50;7.50;;;;;;;19.22;58.20;101694.23;107603;1251;108172;-67
2023/05/19 08:33:26;;;;;;;13.90;7.30;;;;;;;19.31;57.05;101693.59;107601;1251;108794;-67
2023/05/19 08:35:56;;;;;;;14.40;6.50;;;;;;;19.36;56.97;101688.71;107532;1254;99191;-64
2023/05/19 08:38:25;;;;;;;12.70;6.50;;;;;;;19.58;57.16;101687.89;107627;1254;99155;-65
2023/05/19 08:40:56;;;;;;;11.90;7.20;;;;;;;19.84;56.64;101689.92;107619;1256;112742;-67
2023/05/19 08:43:25;;;;;;;10.90;6.70;;;;;;;20.04;55.69;101688.17;107612;1254;109755;-67
2023/05/19 08:45:54;;;;;;;9.40;6.00;;;;;;;20.02;55.13;101692.71;107611;1254;108050;-65
2023/05/19 08:48:22;;;;;;;13.20;6.50;;;;;;;20.03;55.41;101681.14;107602;1255;99234;-65
2023/05/19 08:50:58;;;;;;;11.80;6.10;;;;;;;20.28;55.03;101684.86;107619;1255;99169;-66
2023/05/19 08:53:35;;;;;;;17.90;7.50;;;;;;;20.56;54.29;101681.66;107621;1254;114215;-64
2023/05/19 08:56:10;;;;;;;25.40;6.60;;;;;;;20.52;52.81;101691.23;107660;1256;108972;-66
2023/05/19 08:58:40;;;;;;;18.40;7.50;;;;;;;20.55;53.48;101680.35;107600;1256;109148;-66
2023/05/19 09:01:12;;;;;;;17.00;6.40;;;;;;;20.87;53.36;101680.34;107571;1251;99199;-67
2023/05/19 09:03:42;;;;;;;14.70;6.10;;;;;;;21.23;53.29;101676.54;107617;1251;99257;-67
2023/05/19 09:06:13;;;;;;;24.30;6.70;;;;;;;21.57;53.27;101671.36;107562;1257;113332;-66
2023/05/19 09:08:42;;;;;;;15.40;5.40;;;;;;;22.03;52.32;101668.49;107629;1254;110698;-67
2023/05/19 09:11:11;;;;;;;9.40;5.80;;;;;;;22.35;50.55;101667.67;107646;1257;108062;-68
2023/05/19 09:13:39;;;;;;;9.40;6.00;;;;;;;22.45;50.45;101669.66;107599;1251;99261;-70
2023/05/19 09:16:08;;;;;;;8.60;5.40;;;;;;;22.64;49.47;101665.94;107571;1250;99281;-67
2023/05/19 09:18:39;;;;;;;17.80;6.10;;;;;;;22.90;49.27;101669.11;107597;1251;112941;-65
2023/05/19 09:21:10;;;;;;;11.20;5.30;;;;;;;23.22;48.55;101667.54;107559;1255;110252;-67
2023/05/19 09:23:38;;;;;;;16.70;5.30;;;;;;;23.52;48.03;101663.22;107640;1251;107597;-65
2023/05/19 09:26:06;;;;;;;11.00;5.60;;;;;;;23.80;46.85;101666.00;107533;1256;99251;-66
2023/05/19 09:28:36;;;;;;;8.90;5.90;;;;;;;24.03;45.91;101667.50;107605;1251;99095;-67
2023/05/19 09:31:08;;;;;;;8.10;5.50;;;;;;;24.11;44.96;101669.20;107601;1251;112624;-66
2023/05/19 09:33:42;;;;;;;14.60;5.80;;;;;;;24.10;45.43;101665.95;107578;1251;111007;-70
2023/05/19 09:36:13;;;;;;;10.50;5.60;;;;;;;24.14;43.91;101665.10;107575;1251;108504;-68
2023/05/19 09:38:41;;;;;;;13.30;8.80;;;;;;;24.53;43.97;101661.90;107581;1251;99269;-68
2023/05/19 09:41:13;;;;;;;11.30;6.20;;;;;;;24.96;43.02;101658.86;107604;1251;99074;-71
2023/05/19 09:43:55;;;;;;;12.80;5.20;;;;;;;25.30;41.88;101656.23;107558;1256;113036;-71
2023/05/19 09:46:27;;;;;;;8.20;5.00;;;;;;;25.58;41.59;101653.34;107616;1251;109777;-65
2023/05/19 09:48:57;;;;;;;8.00;5.50;;;;;;;25.82;41.69;101651.20;107581;1256;108346;-64
2023/05/19 09:51:25;;;;;;;10.90;4.90;;;;;;;26.16;40.81;101644.51;107568;1256;99021;-65
2023/05/19 09:53:53;;;;;;;11.60;5.10;;;;;;;26.42;40.34;101643.20;107580;1251;99051;-65
2023/05/19 09:56:24;;;;;;;10.60;4.90;;;;;;;26.71;39.31;101640.34;107569;1251;112942;-66
2023/05/19 09:58:53;;;;;;;8.20;4.90;;;;;;;26.90;37.98;101635.30;107634;1256;108905;-65
2023/05/19 10:01:22;;;;;;;11.00;5.30;;;;;;;26.97;37.95;101630.20;107550;1256;107648;-64
2023/05/19 10:03:52;;;;;;;10.80;5.20;;;;;;;27.12;37.89;101636.03;107608;1256;99172;-65
2023/05/19 10:06:21;;;;;;;9.80;4.60;;;;;;;27.44;38.48;101635.70;107609;1251;99163;-66
2023/05/19 10:08:51;;;;;;;9.00;5.50;;;;;;;27.94;36.22;101629.46;107586;1255;112485;-66
2023/05/19 10:11:22;;;;;;;10.80;4.80;;;;;;;28.13;35.69;101628.90;107511;1251;109116;-66
2023/05/19 10:13:51;;;;;;;14.80;4.80;;;;;;;28.39;35.70;101621.98;107640;1251;108512;-68
2023/05/19 10:16:21;;;;;;;15.60;7.30;;;;;;;28.71;35.93;101626.67;107613;1251;99188;-65
2023/05/19 10:18:51;;;;;;;6.90;5.30;;;;;;;29.18;35.18;101624.45;107650;1256;99794;-67
2023/05/19 10:21:20;;;;;;;11.80;5.30;;;;;;;29.61;34.26;101623.68;107702;1250;113560;-67
2023/05/19 10:23:48;;;;;;;18.40;5.60;;;;;;;30.02;33.35;101618.85;107643;1251;108964;-66
2023/05/19 10:26:18;;;;;;;9.70;4.60;;;;;;;30.41;33.55;101618.93;107607;1254;107840;-67
2023/05/19 10:28:48;;;;;;;8.30;4.80;;;;;;;30.72;32.85;101617.77;107586;1251;99265;-68
2023/05/19 10:31:22;;;;;;;9.10;4.30;;;;;;;31.17;32.51;101613.77;107648;1251;99153;-70
2023/05/19 10:34:29;;;;;;;11.30;7.30;;;;;;;31.52;30.69;101609.73;107627;1254;113624;-67
2023/05/19 10:37:23;;;;;;;16.80;9.20;;;;;;;31.64;31.43;101606.00;107478;1251;109872;-66
2023/05/19 10:39:52;;;;;;;7.20;4.70;;;;;;;31.81;30.78;101595.33;107563;1251;107102;-66
2023/05/19 10:42:35;;;;;;;12.20;4.60;;;;;;;32.02;30.12;101592.73;107631;1251;99803;-65
2023/05/19 10:45:16;;;;;;;;;;;;;;;32.30;29.80;101583.35;107673;1251;99185;-65
2023/05/19 10:47:45;;;;;;;7.60;4.30;;;;;;;32.64;29.49;101581.71;107613;1254;113649;-65
2023/05/19 10:50:14;;;;;;;14.10;4.40;;;;;;;32.80;28.89;101580.36;107647;1251;108620;-66
2023/05/19 10:52:43;;;;;;;9.10;4.40;;;;;;;32.98;28.53;101583.79;107573;1254;108157;-66
2023/05/19 10:55:16;;;;;;;12.00;4.10;;;;;;;33.07;28.71;101582.95;107636;1251;99093;-66
2023/05/19 10:57:57;;;;;;;7.60;4.00;;;;;;;33.23;28.75;101580.38;107666;1251;99698;-66
2023/05/19 11:00:27;;;;;;;13.80;4.60;;;;;;;33.45;28.01;101585.32;107628;1251;113217;-66
2023/05/19 11:03:15;;;;;;;7.40;3.30;;;;;;;33.54;28.20;101584.42;107630;1254;110059;-66
2023/05/19 11:05:49;;;;;;;8.50;4.10;;;;;;;33.86;27.88;101584.98;107588;1254;108563;-67
2023/05/19 11:08:32;;;;;;;10.20;3.70;;;;;;;34.10;27.64;101583.90;107594;1251;99172;-67
2023/05/19 11:11:16;;;;;;;;;;;;;;;34.24;27.07;101581.63;107659;1254;99182;-66
2023/05/19 11:13:54;;;;;;;8.50;3.40;;;;;;;34.40;27.26;101581.56;107588;1251;112431;-67
2023/05/19 11:16:28;;;;;;;6.00;3.90;;;;;;;34.75;26.49;101582.95;107624;1251;108265;-65
2023/05/19 11:18:59;;;;;;;7.60;4.40;;;;;;;34.82;25.84;101582.11;107599;1254;109512;-68